createdAt,value
2023-02-19T00:00:20.793Z,9.77
2023-02-19T00:02:53.132Z,9.79
2023-02-19T00:05:23.680Z,9.73
2023-02-19T00:07:52.063Z,9.77
2023-02-19T00:10:21.011Z,9.78
2023-02-19T00:12:51.266Z,9.77
2023-02-19T00:15:20.302Z,9.79
2023-02-19T00:17:50.212Z,9.73
2023-02-19T00:20:21.412Z,9.73
2023-02-19T00:22:51.920Z,9.79
2023-02-19T00:25:22.410Z,9.78
2023-02-19T00:27:54.423Z,9.79
2023-02-19T00:30:23.034Z,9.73
2023-02-19T00:32:53.058Z,9.76
2023-02-19T00:35:22.544Z,9.80
2023-02-19T00:37:52.209Z,9.82
2023-02-19T00:40:23.495Z,9.85
2023-02-19T00:42:54.495Z,9.82
2023-02-19T00:45:23.383Z,9.82
2023-02-19T00:47:52.277Z,9.82
2023-02-19T00:50:22.863Z,9.85
2023-02-19T00:52:52.695Z,9.83
2023-02-19T00:55:21.608Z,9.77
2023-02-19T00:57:51.010Z,9.77
2023-02-19T01:00:23.129Z,9.82
2023-02-19T01:02:52.509Z,9.84
2023-02-19T01:05:23.814Z,9.80
2023-02-19T01:07:54.411Z,9.84
2023-02-19T01:10:24.838Z,9.80
2023-02-19T01:12:54.289Z,9.82
2023-02-19T01:15:25.141Z,9.81
2023-02-19T01:17:54.658Z,9.80
2023-02-19T01:20:24.004Z,9.80
2023-02-19T01:22:52.963Z,9.80
2023-02-19T01:25:22.526Z,9.80
2023-02-19T01:27:52.207Z,9.80
2023-02-19T01:30:21.181Z,9.74
2023-02-19T01:32:51.859Z,9.75
2023-02-19T01:35:21.374Z,9.74
2023-02-19T01:37:50.845Z,9.72
2023-02-19T01:40:21.693Z,9.78
2023-02-19T01:42:51.805Z,9.77
2023-02-19T01:45:28.001Z,9.74
2023-02-19T01:48:11.584Z,9.76
2023-02-19T01:50:47.496Z,9.80
2023-02-19T01:53:23.549Z,9.79
2023-02-19T01:56:00.391Z,9.77
2023-02-19T01:58:35.710Z,9.79
2023-02-19T02:01:10.590Z,9.82
2023-02-19T02:03:46.343Z,9.84
2023-02-19T02:06:23.332Z,9.82
2023-02-19T02:09:12.038Z,9.82
2023-02-19T02:11:46.324Z,9.86
2023-02-19T02:14:16.454Z,9.89
2023-02-19T02:17:01.992Z,9.91
2023-02-19T02:20:14.578Z,9.87
2023-02-19T02:22:53.836Z,9.90
2023-02-19T02:26:11.781Z,9.88
2023-02-19T02:29:46.472Z,9.86
2023-02-19T02:32:21.881Z,9.78
2023-02-19T02:34:56.192Z,9.82
2023-02-19T02:37:29.477Z,9.80
2023-02-19T02:40:01.560Z,9.81
2023-02-19T02:42:31.637Z,9.83
2023-02-19T02:45:37.048Z,9.82
2023-02-19T02:48:35.058Z,9.78
2023-02-19T02:51:17.474Z,9.78
2023-02-19T02:54:10.554Z,9.77
2023-02-19T02:56:44.142Z,9.81
2023-02-19T02:59:19.029Z,9.79
2023-02-19T03:02:11.827Z,9.80
2023-02-19T03:05:10.639Z,9.76
2023-02-19T03:07:46.622Z,9.79
2023-02-19T03:10:24.867Z,9.82
2023-02-19T03:13:15.735Z,9.81
2023-02-19T03:16:16.962Z,9.81
2023-02-19T03:19:12.410Z,9.82
2023-02-19T03:21:47.049Z,9.78
2023-02-19T03:24:36.905Z,9.77
2023-02-19T03:27:08.280Z,9.74
2023-02-19T03:29:43.383Z,9.71
2023-02-19T03:32:19.250Z,9.73
2023-02-19T03:34:56.739Z,9.72
2023-02-19T03:37:34.581Z,9.73
2023-02-19T03:40:04.220Z,9.72
2023-02-19T03:42:45.419Z,9.69
2023-02-19T03:45:38.138Z,9.69
2023-02-19T03:48:35.155Z,9.72
2023-02-19T03:51:33.189Z,9.72
2023-02-19T03:54:17.821Z,9.68
2023-02-19T03:56:54.871Z,9.70
2023-02-19T03:59:36.066Z,9.67
2023-02-19T04:02:13.286Z,9.67
2023-02-19T04:04:51.048Z,9.65
2023-02-19T04:07:20.719Z,9.68
2023-02-19T04:09:55.152Z,9.67
2023-02-19T04:12:25.985Z,9.70
2023-02-19T04:15:01.903Z,9.70
2023-02-19T04:17:38.514Z,9.70
2023-02-19T04:20:13.624Z,9.71
2023-02-19T04:22:45.394Z,9.70
2023-02-19T04:25:17.041Z,9.70
2023-02-19T04:27:47.769Z,9.63
2023-02-19T04:30:18.665Z,9.63
2023-02-19T04:32:48.741Z,9.65
2023-02-19T04:35:19.454Z,9.64
2023-02-19T04:37:50.072Z,9.64
2023-02-19T04:40:21.523Z,9.61
2023-02-19T04:42:51.318Z,9.60
2023-02-19T04:45:21.852Z,9.58
2023-02-19T04:47:50.928Z,9.60
2023-02-19T04:50:20.835Z,9.63
2023-02-19T04:52:49.751Z,9.63
2023-02-19T04:55:21.186Z,9.61
2023-02-19T04:57:50.751Z,9.60
2023-02-19T05:00:22.022Z,9.59
2023-02-19T05:02:52.004Z,9.58
2023-02-19T05:05:20.980Z,9.55
2023-02-19T05:07:51.529Z,9.51
2023-02-19T05:10:21.291Z,9.49
2023-02-19T05:12:52.643Z,9.48
2023-02-19T05:15:22.862Z,9.45
2023-02-19T05:17:51.793Z,9.45
2023-02-19T05:20:23.579Z,9.44
2023-02-19T05:22:52.697Z,9.43
2023-02-19T05:25:24.021Z,9.42
2023-02-19T05:28:15.249Z,9.41
2023-02-19T05:30:44.401Z,9.42
2023-02-19T05:33:15.613Z,9.36
2023-02-19T05:35:47.133Z,9.39
2023-02-19T05:38:20.241Z,9.39
2023-02-19T05:40:52.354Z,9.38
2023-02-19T05:43:22.470Z,9.39
2023-02-19T05:45:52.617Z,9.40
2023-02-19T05:48:22.928Z,9.35
2023-02-19T05:50:52.438Z,9.36
2023-02-19T05:53:25.187Z,9.35
2023-02-19T05:55:56.990Z,9.34
2023-02-19T05:58:29.693Z,9.32
2023-02-19T06:01:00.644Z,9.32
2023-02-19T06:03:31.336Z,9.34
2023-02-19T06:06:01.643Z,9.33
2023-02-19T06:08:32.040Z,9.26
2023-02-19T06:11:04.287Z,9.27
2023-02-19T06:13:34.657Z,9.30
2023-02-19T06:16:08.376Z,9.27
2023-02-19T06:18:41.002Z,9.25
2023-02-19T06:21:13.256Z,9.20
2023-02-19T06:23:44.436Z,9.24
2023-02-19T06:26:18.860Z,9.25
2023-02-19T06:28:50.756Z,9.26
2023-02-19T06:31:21.598Z,9.27
2023-02-19T06:33:52.300Z,9.27
2023-02-19T06:36:22.914Z,9.29
2023-02-19T06:38:53.006Z,9.25
2023-02-19T06:41:24.763Z,9.27
2023-02-19T06:43:53.725Z,9.29
2023-02-19T06:46:23.465Z,9.29
2023-02-19T06:48:52.499Z,9.29
2023-02-19T06:51:24.975Z,9.32
2023-02-19T06:53:53.665Z,9.34
2023-02-19T06:56:29.439Z,9.35
2023-02-19T06:59:01.848Z,9.33
2023-02-19T07:01:33.557Z,9.34
2023-02-19T07:04:04.848Z,9.36
2023-02-19T07:06:36.313Z,9.36
2023-02-19T07:09:07.636Z,9.34
2023-02-19T07:11:40.976Z,9.34
2023-02-19T07:14:19.840Z,9.35
2023-02-19T07:16:49.076Z,9.37
2023-02-19T07:19:19.335Z,9.41
2023-02-19T07:21:48.959Z,9.41
2023-02-19T07:24:19.198Z,9.40
2023-02-19T07:26:49.824Z,9.43
2023-02-19T07:29:20.915Z,9.42
2023-02-19T07:31:51.641Z,9.42
2023-02-19T07:34:21.318Z,9.40
2023-02-19T07:36:50.507Z,9.42
2023-02-19T07:39:20.648Z,9.36
2023-02-19T07:41:54.462Z,9.38
2023-02-19T07:44:23.343Z,9.41
2023-02-19T07:46:55.346Z,9.45
2023-02-19T07:49:24.989Z,9.47
2023-02-19T07:51:55.726Z,9.48
2023-02-19T07:54:25.931Z,9.50
2023-02-19T07:56:56.649Z,9.52
2023-02-19T07:59:25.762Z,9.50
2023-02-19T08:02:11.558Z,9.50
2023-02-19T08:04:41.172Z,9.54
2023-02-19T08:07:11.638Z,9.56
2023-02-19T08:09:41.265Z,9.57
2023-02-19T08:12:30.676Z,9.52
2023-02-19T08:15:01.315Z,9.54
2023-02-19T08:17:31.274Z,9.56
2023-02-19T08:20:00.584Z,9.59
2023-02-19T08:22:29.454Z,9.61
2023-02-19T08:24:59.491Z,9.63
2023-02-19T08:27:30.424Z,9.63
2023-02-19T08:29:59.133Z,9.66
2023-02-19T08:32:28.032Z,9.67
2023-02-19T08:34:57.553Z,9.67
2023-02-19T08:37:26.932Z,9.61
2023-02-19T08:39:56.212Z,9.61
2023-02-19T08:42:26.381Z,9.67
2023-02-19T08:44:58.410Z,9.72
2023-02-19T08:47:29.543Z,9.72
2023-02-19T08:49:59.801Z,9.73
2023-02-19T08:52:29.992Z,9.76
2023-02-19T08:54:59.531Z,9.75
2023-02-19T08:57:29.289Z,9.74
2023-02-19T08:59:59.919Z,9.77
2023-02-19T09:02:28.908Z,9.77
2023-02-19T09:04:58.403Z,9.78
2023-02-19T09:07:28.229Z,9.79
2023-02-19T09:09:59.170Z,9.80
2023-02-19T09:12:28.774Z,9.82
2023-02-19T09:15:00.718Z,9.83
2023-02-19T09:17:30.411Z,9.87
2023-02-19T09:19:59.417Z,9.86
2023-02-19T09:22:28.790Z,9.89
2023-02-19T09:24:57.593Z,9.88
2023-02-19T09:27:27.937Z,9.88
2023-02-19T09:29:58.823Z,9.91
2023-02-19T09:32:28.335Z,9.93
2023-02-19T09:34:57.330Z,9.98
2023-02-19T09:37:28.858Z,9.99
2023-02-19T09:39:59.321Z,10.04
2023-02-19T09:42:33.032Z,10.00
2023-02-19T09:45:07.195Z,10.04
2023-02-19T09:47:37.995Z,10.06
2023-02-19T09:50:12.044Z,10.10
2023-02-19T09:52:50.496Z,10.11
2023-02-19T09:55:33.421Z,10.13
2023-02-19T09:58:19.587Z,10.17
2023-02-19T10:00:52.758Z,10.16
2023-02-19T10:03:30.952Z,10.19
2023-02-19T10:06:02.810Z,10.27
2023-02-19T10:08:37.846Z,10.27
2023-02-19T10:11:07.755Z,10.27
2023-02-19T10:13:42.834Z,10.29
2023-02-19T10:16:18.617Z,10.32
2023-02-19T10:18:49.606Z,10.39
2023-02-19T10:21:25.654Z,10.43
2023-02-19T10:24:02.262Z,10.45
2023-02-19T10:26:35.400Z,10.44
2023-02-19T10:29:04.946Z,10.44
2023-02-19T10:31:35.638Z,10.45
2023-02-19T10:34:06.622Z,10.44
2023-02-19T10:36:42.166Z,10.47
2023-02-19T10:39:42.222Z,10.53
2023-02-19T10:42:47.067Z,10.49
2023-02-19T10:45:23.617Z,10.50
2023-02-19T10:47:55.910Z,10.52
2023-02-19T10:50:32.598Z,10.55
2023-02-19T10:53:03.582Z,10.58
2023-02-19T10:55:38.101Z,10.57
2023-02-19T10:58:27.768Z,10.54
2023-02-19T11:01:15.590Z,10.58
2023-02-19T11:03:45.638Z,10.63
2023-02-19T11:06:19.210Z,10.67
2023-02-19T11:08:56.546Z,10.65
2023-02-19T11:11:37.679Z,10.68
2023-02-19T11:14:17.122Z,10.67
2023-02-19T11:16:49.812Z,10.75
2023-02-19T11:19:37.485Z,10.79
2023-02-19T11:22:30.396Z,10.78
2023-02-19T11:25:07.897Z,10.72
2023-02-19T11:27:55.214Z,10.74
2023-02-19T11:30:43.395Z,10.77
2023-02-19T11:33:31.676Z,10.83
2023-02-19T11:36:33.856Z,10.87
2023-02-19T11:39:23.834Z,10.88
2023-02-19T11:42:13.200Z,10.85
2023-02-19T11:45:01.870Z,10.84
2023-02-19T11:48:05.340Z,10.80
2023-02-19T11:50:53.735Z,10.80
2023-02-19T11:53:32.755Z,10.86
2023-02-19T11:56:19.946Z,10.89
2023-02-19T11:59:05.007Z,10.89
2023-02-19T12:01:59.471Z,10.86
2023-02-19T12:05:23.825Z,10.90
2023-02-19T12:08:26.390Z,10.90
2023-02-19T12:11:54.102Z,10.91
2023-02-19T12:15:07.178Z,10.90
2023-02-19T12:18:00.145Z,10.91
2023-02-19T12:20:41.702Z,10.98
2023-02-19T12:24:03.190Z,10.99
2023-02-19T12:26:45.351Z,11.01
2023-02-19T12:29:34.330Z,11.05
2023-02-19T12:32:35.709Z,11.04
2023-02-19T12:35:46.151Z,11.04
2023-02-19T12:38:34.080Z,11.06
2023-02-19T12:41:21.055Z,11.07
2023-02-19T12:44:01.345Z,11.06
2023-02-19T12:46:38.129Z,11.10
2023-02-19T12:49:15.183Z,11.13
2023-02-19T12:51:50.576Z,11.10
2023-02-19T12:54:30.140Z,11.07
2023-02-19T12:57:07.570Z,11.04
2023-02-19T12:59:47.992Z,11.07
2023-02-19T13:02:27.220Z,11.09
2023-02-19T13:05:05.230Z,11.09
2023-02-19T13:07:40.335Z,11.13
2023-02-19T13:10:29.027Z,11.10
2023-02-19T13:13:02.780Z,11.11
2023-02-19T13:15:40.272Z,11.05
2023-02-19T13:18:18.324Z,11.08
2023-02-19T13:20:51.738Z,11.11
2023-02-19T13:23:46.554Z,11.10
2023-02-19T13:26:50.980Z,11.07
2023-02-19T13:29:53.597Z,11.08
2023-02-19T13:33:01.033Z,10.98
2023-02-19T13:36:13.879Z,10.99
2023-02-19T13:38:47.419Z,10.93
2023-02-19T13:41:28.528Z,10.93
2023-02-19T13:44:03.235Z,10.93
2023-02-19T13:46:43.648Z,10.93
2023-02-19T13:49:52.866Z,10.94
2023-02-19T13:52:43.229Z,10.96
2023-02-19T13:55:53.689Z,10.99
2023-02-19T13:59:01.512Z,11.00
2023-02-19T14:02:16.089Z,11.00
2023-02-19T14:05:12.476Z,10.96
2023-02-19T14:08:02.447Z,10.97
2023-02-19T14:11:02.816Z,10.98
2023-02-19T14:14:06.616Z,11.02
2023-02-19T14:16:55.001Z,10.97
2023-02-19T14:19:54.369Z,10.95
2023-02-19T14:23:18.551Z,10.93
2023-02-19T14:26:01.179Z,10.95
2023-02-19T14:28:47.246Z,10.96
2023-02-19T14:31:38.679Z,10.95
2023-02-19T14:34:22.992Z,10.99
2023-02-19T14:37:00.743Z,10.96
2023-02-19T14:39:35.189Z,10.98
2023-02-19T14:42:10.628Z,11.00
2023-02-19T14:44:49.503Z,11.01
2023-02-19T14:47:22.975Z,11.01
2023-02-19T14:49:55.591Z,10.99
2023-02-19T14:52:37.371Z,11.02
2023-02-19T14:55:16.412Z,11.00
2023-02-19T14:57:50.669Z,11.02
2023-02-19T15:00:29.653Z,11.00
2023-02-19T15:03:00.681Z,11.04
2023-02-19T15:05:34.280Z,11.04
2023-02-19T15:08:13.667Z,10.98
2023-02-19T15:10:45.948Z,11.02
2023-02-19T15:13:27.275Z,10.94
2023-02-19T15:15:59.026Z,10.87
2023-02-19T15:18:30.000Z,10.81
2023-02-19T15:21:06.751Z,10.84
2023-02-19T15:23:38.210Z,10.76
2023-02-19T15:26:21.668Z,10.74
2023-02-19T15:29:01.625Z,10.72
2023-02-19T15:31:31.328Z,10.74
2023-02-19T15:34:01.228Z,10.76
2023-02-19T15:36:34.537Z,10.73
2023-02-19T15:39:06.574Z,10.71
2023-02-19T15:41:38.217Z,10.71
2023-02-19T15:44:35.611Z,10.68
2023-02-19T15:47:18.607Z,10.66
2023-02-19T15:49:58.950Z,10.68
2023-02-19T15:52:45.311Z,10.68
2023-02-19T15:55:44.559Z,10.70
2023-02-19T15:58:23.717Z,10.68
2023-02-19T16:00:58.505Z,10.69
2023-02-19T16:03:31.145Z,10.69
2023-02-19T16:06:03.547Z,10.66
2023-02-19T16:08:35.666Z,10.64
2023-02-19T16:11:27.492Z,10.62
2023-02-19T16:14:20.225Z,10.63
2023-02-19T16:16:53.388Z,10.62
2023-02-19T16:19:28.419Z,10.64
2023-02-19T16:21:59.595Z,10.64
2023-02-19T16:24:35.492Z,10.57
2023-02-19T16:27:08.414Z,10.54
2023-02-19T16:29:38.090Z,10.51
2023-02-19T16:32:16.490Z,10.52
2023-02-19T16:34:49.942Z,10.46
2023-02-19T16:37:38.186Z,10.45
2023-02-19T16:41:04.279Z,10.44
2023-02-19T16:43:43.682Z,10.42
2023-02-19T16:46:15.412Z,10.43
2023-02-19T16:48:44.349Z,10.45
2023-02-19T16:51:23.838Z,10.43
2023-02-19T16:53:52.265Z,10.43
2023-02-19T16:56:23.643Z,10.41
2023-02-19T16:58:54.022Z,10.38
2023-02-19T17:01:23.033Z,10.35
2023-02-19T17:03:54.866Z,10.35
2023-02-19T17:06:23.835Z,10.32
2023-02-19T17:08:53.288Z,10.28
2023-02-19T17:11:23.047Z,10.29
2023-02-19T17:13:53.930Z,10.31
2023-02-19T17:16:27.260Z,10.30
2023-02-19T17:18:57.116Z,10.29
2023-02-19T17:21:28.216Z,10.26
2023-02-19T17:23:57.796Z,10.24
2023-02-19T17:26:29.235Z,10.23
2023-02-19T17:29:00.436Z,10.21
2023-02-19T17:31:30.005Z,10.20
2023-02-19T17:33:58.993Z,10.17
2023-02-19T17:36:30.961Z,10.15
2023-02-19T17:39:01.103Z,10.15
2023-02-19T17:41:31.060Z,10.15
2023-02-19T17:44:01.787Z,10.12
2023-02-19T17:46:30.778Z,10.11
2023-02-19T17:48:59.676Z,10.10
2023-02-19T17:51:28.424Z,10.08
2023-02-19T17:53:57.012Z,10.07
2023-02-19T17:56:28.447Z,10.04
2023-02-19T17:58:59.186Z,10.04
2023-02-19T18:01:29.594Z,10.04
2023-02-19T18:03:59.230Z,10.03
2023-02-19T18:06:28.644Z,10.03
2023-02-19T18:08:58.616Z,10.01
2023-02-19T18:11:28.151Z,9.98
2023-02-19T18:13:57.103Z,9.98
2023-02-19T18:16:28.416Z,9.98
2023-02-19T18:18:58.456Z,9.98
2023-02-19T18:21:28.879Z,9.97
2023-02-19T18:23:59.543Z,9.98
2023-02-19T18:26:28.461Z,9.94
2023-02-19T18:28:58.527Z,9.94
2023-02-19T18:31:29.967Z,9.93
2023-02-19T18:34:00.100Z,9.93
2023-02-19T18:36:29.133Z,9.91
2023-02-19T18:38:58.655Z,9.90
2023-02-19T18:41:28.049Z,9.91
2023-02-19T18:43:57.492Z,9.90
2023-02-19T18:46:25.943Z,9.89
2023-02-19T18:48:57.853Z,9.89
2023-02-19T18:51:28.403Z,9.86
2023-02-19T18:53:58.425Z,9.83
2023-02-19T18:56:30.072Z,9.77
2023-02-19T18:59:01.084Z,9.78
2023-02-19T19:01:30.598Z,9.77
2023-02-19T19:04:02.136Z,9.77
2023-02-19T19:06:32.007Z,9.76
2023-02-19T19:09:01.531Z,9.73
2023-02-19T19:11:31.047Z,9.75
2023-02-19T19:13:59.821Z,9.74
2023-02-19T19:16:31.107Z,9.71
2023-02-19T19:19:01.837Z,9.70
2023-02-19T19:21:32.268Z,9.72
2023-02-19T19:24:01.216Z,9.70
2023-02-19T19:26:29.713Z,9.69
2023-02-19T19:28:59.386Z,9.72
2023-02-19T19:31:36.182Z,9.71
2023-02-19T19:34:07.257Z,9.70
2023-02-19T19:36:36.979Z,9.66
2023-02-19T19:39:07.340Z,9.65
2023-02-19T19:41:36.902Z,9.63
2023-02-19T19:44:06.618Z,9.63
2023-02-19T19:46:36.479Z,9.63
2023-02-19T19:49:07.846Z,9.64
2023-02-19T19:51:37.804Z,9.63
2023-02-19T19:54:09.018Z,9.59
2023-02-19T19:56:43.732Z,9.59
2023-02-19T19:59:13.464Z,9.59
2023-02-19T20:01:50.270Z,9.58
2023-02-19T20:04:23.361Z,9.55
2023-02-19T20:06:52.191Z,9.54
2023-02-19T20:09:21.758Z,9.50
2023-02-19T20:11:53.886Z,9.54
2023-02-19T20:14:26.766Z,9.51
2023-02-19T20:16:57.984Z,9.51
2023-02-19T20:19:29.514Z,9.50
2023-02-19T20:21:58.467Z,9.54
2023-02-19T20:24:29.724Z,9.51
2023-02-19T20:27:02.000Z,9.51
2023-02-19T20:29:33.662Z,9.50
2023-02-19T20:32:04.119Z,9.47
2023-02-19T20:34:35.118Z,9.48
2023-02-19T20:37:04.624Z,9.48
2023-02-19T20:39:37.499Z,9.48
2023-02-19T20:42:07.455Z,9.48
2023-02-19T20:44:36.876Z,9.48
2023-02-19T20:47:06.905Z,9.46
2023-02-19T20:49:37.269Z,9.47
2023-02-19T20:52:09.603Z,9.45
2023-02-19T20:54:39.432Z,9.47
2023-02-19T20:57:10.060Z,9.48
2023-02-19T20:59:40.738Z,9.49
2023-02-19T21:02:24.983Z,9.51
2023-02-19T21:04:54.812Z,9.50
2023-02-19T21:07:24.994Z,9.47
2023-02-19T21:09:54.089Z,9.47
2023-02-19T21:12:23.962Z,9.47
2023-02-19T21:14:53.015Z,9.48
2023-02-19T21:17:22.071Z,9.48
2023-02-19T21:19:51.590Z,9.50
2023-02-19T21:22:22.581Z,9.49
2023-02-19T21:24:53.625Z,9.49
2023-02-19T21:27:23.708Z,9.50
2023-02-19T21:29:52.723Z,9.45
2023-02-19T21:32:21.778Z,9.47
2023-02-19T21:34:51.338Z,9.47
2023-02-19T21:37:22.312Z,9.45
2023-02-19T21:39:51.627Z,9.46
2023-02-19T21:42:21.103Z,9.47
2023-02-19T21:44:51.093Z,9.38
2023-02-19T21:47:20.672Z,9.42
2023-02-19T21:49:49.643Z,9.43
2023-02-19T21:52:19.095Z,9.41
2023-02-19T21:54:49.968Z,9.41
2023-02-19T21:57:20.013Z,9.35
2023-02-19T21:59:48.441Z,9.34
2023-02-19T22:02:20.463Z,9.33
2023-02-19T22:04:55.365Z,9.31
2023-02-19T22:07:25.048Z,9.31
2023-02-19T22:09:55.476Z,9.33
2023-02-19T22:12:25.888Z,9.31
2023-02-19T22:14:54.428Z,9.26
2023-02-19T22:17:24.400Z,9.27
2023-02-19T22:19:53.351Z,9.30
2023-02-19T22:22:22.365Z,9.27
2023-02-19T22:24:51.850Z,9.24
2023-02-19T22:27:24.555Z,9.17
2023-02-19T22:29:54.048Z,9.21
2023-02-19T22:32:24.084Z,9.21
2023-02-19T22:34:53.373Z,9.19
2023-02-19T22:37:22.201Z,9.18
2023-02-19T22:39:52.588Z,9.16
2023-02-19T22:42:24.870Z,9.13
2023-02-19T22:44:54.896Z,9.10
2023-02-19T22:47:24.880Z,9.03
2023-02-19T22:49:53.297Z,8.93
2023-02-19T22:52:28.483Z,8.95
2023-02-19T22:54:57.640Z,8.88
2023-02-19T22:57:29.345Z,8.81
2023-02-19T22:59:58.752Z,8.82
2023-02-19T23:02:27.170Z,8.71
2023-02-19T23:04:57.168Z,8.68
2023-02-19T23:07:26.161Z,8.65
2023-02-19T23:09:55.043Z,8.59
2023-02-19T23:12:25.368Z,8.57
2023-02-19T23:14:57.206Z,8.55
2023-02-19T23:17:27.310Z,8.49
2023-02-19T23:19:56.468Z,8.43
2023-02-19T23:22:25.336Z,8.37
2023-02-19T23:24:54.960Z,8.28
2023-02-19T23:27:24.550Z,8.22
2023-02-19T23:29:55.384Z,8.22
2023-02-19T23:32:23.949Z,8.18
2023-02-19T23:34:53.357Z,8.10
2023-02-19T23:37:23.482Z,8.06
2023-02-19T23:39:52.561Z,8.00
2023-02-19T23:42:22.646Z,7.96
2023-02-19T23:44:52.847Z,7.98
2023-02-19T23:47:23.312Z,7.91
2023-02-19T23:49:53.482Z,7.86
2023-02-19T23:52:23.821Z,7.76
2023-02-19T23:54:53.849Z,7.66
2023-02-19T23:57:23.490Z,7.62
2023-02-19T23:59:52.589Z,7.54
